Time;durP1;ratioP1;P1;durP2;ratioP2;P2;SDS_P1;SDS_P2;PMS_P1;PMS_P2;Temp;Humidity;BMP_temperature;BMP_pressure;BME280_temperature;BME280_humidity;BME280_pressure;Samples;Min_cycle;Max_cycle;Signal;HPM_P1;HPM_P2
2023/12/11 00:01:51;;;;;;;1.03;0.70;;;;;;;9.38;73.51;94370.91;5015642;28;20225;-88
2023/12/11 00:04:19;;;;;;;1.60;0.50;;;;;;;9.43;72.80;94354.91;5051620;23;20233;-89
2023/12/11 00:06:45;;;;;;;0.60;0.60;;;;;;;9.39;73.53;94366.56;5028943;28;20206;-89
2023/12/11 00:09:24;;;;;;;0.70;0.70;;;;;;;9.43;73.50;94375.47;5028079;28;20623;-91
2023/12/11 00:11:51;;;;;;;0.70;0.70;;;;;;;9.44;73.88;94375.25;5028732;28;20197;-88
2023/12/11 00:14:17;;;;;;;0.93;0.90;;;;;;;9.43;74.58;94398.59;5023395;28;20353;-89
2023/12/11 00:16:45;;;;;;;0.97;0.80;;;;;;;9.41;75.10;94424.47;5008811;28;20210;-89
2023/12/11 00:19:28;;;;;;;0.77;0.77;;;;;;;9.38;76.34;94460.81;5025112;28;20283;-89
2023/12/11 00:21:54;;;;;;;0.80;0.70;;;;;;;9.38;77.66;94499.34;5008119;28;20234;-88
2023/12/11 00:24:21;;;;;;;0.60;0.60;;;;;;;9.37;78.67;94525.22;5008956;28;20240;-90
2023/12/11 00:26:47;;;;;;;0.50;0.50;;;;;;;9.30;80.12;94563.72;5028922;28;20198;-89
2023/12/11 00:29:34;;;;;;;0.97;0.57;;;;;;;9.35;80.68;94579.34;5032417;28;20198;-89
2023/12/11 00:32:00;;;;;;;1.17;0.50;;;;;;;9.30;82.29;94609.97;5032451;28;20205;-89
2023/12/11 00:34:28;;;;;;;0.60;0.60;;;;;;;9.31;83.61;94606.41;5030399;28;20222;-89
2023/12/11 00:37:08;;;;;;;0.70;0.63;;;;;;;9.34;84.76;94632.50;5032408;28;20213;-89
2023/12/11 00:39:34;;;;;;;0.40;0.40;;;;;;;9.31;86.56;94657.78;5029165;28;20205;-89
2023/12/11 00:42:01;;;;;;;0.50;0.50;;;;;;;9.38;86.60;94653.47;5012331;28;20219;-90
2023/12/11 00:44:27;;;;;;;0.50;0.50;;;;;;;9.34;88.83;94698.50;5012590;28;20214;-90
2023/12/11 00:47:04;;;;;;;;;;;;;;;;;;;;;
2023/12/11 00:49:32;;;;;;;0.60;0.50;;;;;;;9.36;90.51;94717.09;5017728;28;20210;-89
2023/12/11 00:51:59;;;;;;;0.50;0.50;;;;;;;9.41;90.21;94722.47;5027173;28;20194;-88
2023/12/11 00:54:25;;;;;;;0.40;0.40;;;;;;;9.43;92.34;94741.03;5029131;28;20738;-89
2023/12/11 00:56:52;;;;;;;2.00;1.00;;;;;;;9.44;93.50;94770.06;5012323;28;20202;-89
2023/12/11 00:59:18;;;;;;;0.50;0.47;;;;;;;9.48;93.09;94779.00;5012184;28;20217;-88
2023/12/11 01:02:07;;;;;;;0.40;0.40;;;;;;;9.45;92.60;94762.19;5012298;28;20590;-87
2023/12/11 01:04:35;;;;;;;0.73;0.50;;;;;;;9.42;92.54;94766.94;5012137;28;20253;-89
2023/12/11 01:07:11;;;;;;;;;;;;;;;;;;;;;
2023/12/11 01:09:38;;;;;;;0.43;0.43;;;;;;;9.46;91.89;94752.69;5029975;28;20209;-89
2023/12/11 01:12:06;;;;;;;1.73;0.80;;;;;;;9.48;91.29;94759.22;5023498;28;20297;-88
2023/12/11 01:14:32;;;;;;;0.60;0.50;;;;;;;9.51;90.82;94750.34;5016922;28;20707;-89
2023/12/11 01:16:58;;;;;;;0.93;0.50;;;;;;;9.48;90.88;94758.44;5011834;28;20209;-88
2023/12/11 01:19:39;;;;;;;1.10;0.40;;;;;;;9.42;91.40;94760.00;5011719;28;20198;-88
2023/12/11 01:22:06;;;;;;;0.40;0.40;;;;;;;9.49;90.51;94757.47;5016220;28;20246;-89
2023/12/11 01:24:33;;;;;;;0.90;0.60;;;;;;;9.50;90.36;94766.75;5027374;28;20215;-88
2023/12/11 01:26:59;;;;;;;0.70;0.70;;;;;;;9.46;90.65;94781.75;5029236;28;20217;-89
2023/12/11 01:29:27;;;;;;;0.47;0.47;;;;;;;9.47;91.22;94796.19;5030016;28;20194;-89
2023/12/11 01:32:04;;;;;;;0.50;0.50;;;;;;;9.42;94.91;94857.63;5020671;28;20206;-89
2023/12/11 01:34:30;;;;;;;0.80;0.60;;;;;;;9.33;98.58;94897.28;5029508;28;20288;-90
2023/12/11 01:36:57;;;;;;;0.77;0.60;;;;;;;9.29;100.00;94917.41;5029832;28;20201;-89
2023/12/11 01:39:24;;;;;;;0.50;0.50;;;;;;;9.31;99.85;94924.91;5029667;28;20210;-89
2023/12/11 01:41:51;;;;;;;0.50;0.50;;;;;;;9.24;100.00;94930.00;5030840;28;20221;-89
2023/12/11 01:44:27;;;;;;;1.30;0.70;;;;;;;9.22;100.00;94941.44;5030435;28;20268;-89
2023/12/11 01:46:53;;;;;;;0.60;0.60;;;;;;;9.13;100.00;94951.03;5019236;28;20202;-89
2023/12/11 01:49:20;;;;;;;0.60;0.50;;;;;;;9.04;100.00;94975.25;5030976;28;20198;-89
2023/12/11 01:51:48;;;;;;;0.83;0.67;;;;;;;8.95;100.00;94981.47;5031234;28;20202;-89
2023/12/11 01:54:31;;;;;;;0.67;0.60;;;;;;;8.93;100.00;94986.78;5028979;28;20209;-90
2023/12/11 01:56:58;;;;;;;0.60;0.60;;;;;;;8.89;100.00;94989.88;5012371;28;20205;-89
2023/12/11 01:59:24;;;;;;;0.80;0.63;;;;;;;8.95;100.00;94986.59;5010945;28;20205;-89
2023/12/11 02:01:51;;;;;;;0.50;0.50;;;;;;;8.81;100.00;94977.16;5010919;28;20226;-90
2023/12/11 02:04:32;;;;;;;0.70;0.70;;;;;;;8.73;100.00;94997.78;5013474;28;20692;-89
2023/12/11 02:06:59;;;;;;;1.00;0.60;;;;;;;8.66;100.00;95021.59;5018479;28;20202;-88
2023/12/11 02:09:26;;;;;;;0.97;0.80;;;;;;;8.66;100.00;95036.19;5028097;28;20563;-88
2023/12/11 02:11:55;;;;;;;0.90;0.60;;;;;;;8.74;100.00;95040.44;5029136;28;20676;-89
2023/12/11 02:14:40;;;;;;;2.13;0.80;;;;;;;8.76;100.00;95020.53;5026007;28;20301;-88
2023/12/11 02:17:09;;;;;;;0.80;0.70;;;;;;;8.75;100.00;95026.63;5010553;28;20816;-89
2023/12/11 02:19:37;;;;;;;2.93;0.73;;;;;;;8.87;100.00;95027.75;5010599;28;20206;-87
2023/12/11 02:22:13;;;;;;;1.27;0.73;;;;;;;8.88;100.00;95048.13;5010760;28;20313;-89
2023/12/11 02:24:47;;;;;;;1.07;0.70;;;;;;;8.91;100.00;95076.00;5015052;28;20217;-88
2023/12/11 02:27:15;;;;;;;0.80;0.80;;;;;;;8.93;100.00;95055.28;5020136;28;20668;-89
2023/12/11 02:29:58;;;;;;;0.80;0.80;;;;;;;8.78;100.00;95069.91;5035661;28;20769;-89
2023/12/11 02:32:24;;;;;;;0.90;0.80;;;;;;;8.71;100.00;95056.19;5029598;28;20579;-89
2023/12/11 02:34:51;;;;;;;1.00;0.87;;;;;;;8.76;100.00;95057.25;5023168;28;20400;-88
2023/12/11 02:37:17;;;;;;;1.27;0.83;;;;;;;8.83;100.00;95065.84;5010110;28;20608;-89
2023/12/11 02:39:56;;;;;;;0.70;0.67;;;;;;;8.83;100.00;95068.41;5009737;28;20230;-88
2023/12/11 02:42:24;;;;;;;1.80;0.70;;;;;;;8.79;100.00;95059.47;5011708;28;20229;-89
2023/12/11 02:44:50;;;;;;;3.17;1.00;;;;;;;8.80;100.00;95063.63;5029072;28;20214;-88
2023/12/11 02:47:17;;;;;;;1.77;1.17;;;;;;;8.78;100.00;95073.28;5019526;28;20199;-89
2023/12/11 02:50:04;;;;;;;1.53;0.80;;;;;;;8.82;100.00;95078.88;5014052;28;20195;-89
2023/12/11 02:52:33;;;;;;;0.70;0.70;;;;;;;8.84;100.00;95077.72;5009898;28;20206;-87
2023/12/11 02:57:42;;;;;;;1.00;0.80;;;;;;;8.98;100.00;95071.75;5027594;28;20202;-88
2023/12/11 03:00:09;;;;;;;2.27;1.00;;;;;;;9.00;100.00;95082.66;5020958;28;20199;-88
2023/12/11 03:02:37;;;;;;;0.97;0.80;;;;;;;8.90;100.00;95083.88;5028809;28;20236;-88
2023/12/11 03:05:05;;;;;;;3.67;0.80;;;;;;;8.84;100.00;95087.97;5027375;23;20227;-89
2023/12/11 03:07:57;;;;;;;1.97;1.00;;;;;;;8.80;100.00;95132.94;5009013;28;20203;-88
2023/12/11 03:10:23;;;;;;;1.60;0.80;;;;;;;8.78;100.00;95132.31;5009500;28;20294;-88
2023/12/11 03:13:00;;;;;;;1.97;0.80;;;;;;;8.78;100.00;95121.25;5009340;28;20191;-88
2023/12/11 03:15:27;;;;;;;2.03;0.87;;;;;;;8.78;100.00;95172.59;5007397;28;20223;-88
2023/12/11 03:17:53;;;;;;;2.40;0.87;;;;;;;8.80;100.00;95168.06;5009194;28;20206;-88
2023/12/11 03:20:20;;;;;;;2.10;0.90;;;;;;;8.74;100.00;95169.56;5009520;28;20203;-88
2023/12/11 03:22:46;;;;;;;3.17;1.20;;;;;;;8.66;100.00;95172.19;5009066;28;20218;-88
2023/12/11 03:25:25;;;;;;;1.40;1.00;;;;;;;8.66;100.00;95172.19;5007987;28;20243;-88
2023/12/11 03:27:51;;;;;;;2.33;0.87;;;;;;;8.68;100.00;95172.81;5009102;28;20199;-88
2023/12/11 03:30:19;;;;;;;2.30;0.87;;;;;;;8.69;100.00;95179.56;5016895;28;20375;-89
2023/12/11 03:32:45;;;;;;;3.17;1.20;;;;;;;8.72;100.00;95173.28;5007547;28;20209;-89
2023/12/11 03:35:29;;;;;;;1.40;0.90;;;;;;;8.66;100.00;95174.75;5009331;28;20680;-88
2023/12/11 03:37:56;;;;;;;2.17;1.10;;;;;;;8.62;100.00;95174.34;5009315;28;20594;-88
2023/12/11 03:40:22;;;;;;;2.13;1.10;;;;;;;8.66;100.00;95172.19;5009318;28;20202;-88
2023/12/11 03:42:49;;;;;;;2.10;0.97;;;;;;;8.73;100.00;95185.94;5008622;28;20222;-88
2023/12/11 03:45:27;;;;;;;1.63;0.90;;;;;;;8.67;100.00;95181.50;5008749;28;20226;-88
2023/12/11 03:47:55;;;;;;;1.60;1.00;;;;;;;8.64;100.00;95176.72;5006903;28;20209;-89
2023/12/11 03:50:22;;;;;;;1.50;0.90;;;;;;;8.67;100.00;95176.34;5008825;28;20254;-88
2023/12/11 03:52:48;;;;;;;1.90;0.90;;;;;;;8.78;100.00;95172.59;5008977;28;20566;-89
2023/12/11 03:55:15;;;;;;;1.30;0.90;;;;;;;8.80;100.00;95168.06;5008374;28;20223;-88
2023/12/11 03:57:50;;;;;;;3.10;1.27;;;;;;;8.83;100.00;95150.56;5008739;28;20206;-89
2023/12/11 04:00:16;;;;;;;1.87;1.00;;;;;;;8.86;100.00;95142.47;4996713;28;20203;-89
2023/12/11 04:02:43;;;;;;;1.00;0.90;;;;;;;8.76;100.00;95159.94;4988762;28;20693;-89
2023/12/11 04:05:11;;;;;;;3.03;0.90;;;;;;;8.77;100.00;95163.28;5007280;28;20632;-88
2023/12/11 04:07:37;;;;;;;1.27;0.90;;;;;;;8.80;100.00;95158.59;5008838;28;20854;-89
2023/12/11 04:10:14;;;;;;;2.77;0.90;;;;;;;8.73;100.00;95160.28;5008721;28;20203;-89
2023/12/11 04:12:42;;;;;;;0.80;0.80;;;;;;;8.78;100.00;95162.31;5008180;28;20202;-88
2023/12/11 04:15:10;;;;;;;2.97;0.90;;;;;;;8.75;100.00;95158.31;5008288;28;20581;-89
2023/12/11 04:17:36;;;;;;;1.20;1.10;;;;;;;8.84;100.00;95156.50;5008465;28;20216;-89
2023/12/11 04:20:03;;;;;;;3.57;1.00;;;;;;;8.84;100.00;95141.88;5006773;28;20198;-89
2023/12/11 04:22:40;;;;;;;1.13;1.00;;;;;;;8.88;100.00;95134.59;5007944;28;20230;-89
2023/12/11 04:25:07;;;;;;;1.83;0.83;;;;;;;8.83;100.00;95140.28;5007457;28;20218;-89
2023/12/11 04:27:33;;;;;;;1.13;1.00;;;;;;;8.84;100.00;95138.53;5014871;28;20578;-88
2023/12/11 04:30:00;;;;;;;0.77;0.70;;;;;;;8.77;100.00;95169.22;5028037;28;20705;-89
2023/12/11 04:32:27;;;;;;;1.87;0.90;;;;;;;8.73;100.00;95167.97;5013702;28;20201;-88
2023/12/11 04:35:02;;;;;;;0.77;0.77;;;;;;;8.76;100.00;95172.75;5008002;28;20576;-89
2023/12/11 04:37:29;;;;;;;0.80;0.80;;;;;;;8.84;100.00;95167.56;5004056;28;20214;-89
2023/12/11 04:39:56;;;;;;;1.37;0.60;;;;;;;8.90;100.00;95158.34;5008689;28;20218;-88
2023/12/11 04:42:23;;;;;;;1.63;0.90;;;;;;;8.94;100.00;95162.16;5008608;28;20218;-88
2023/12/11 04:47:30;;;;;;;0.70;0.70;;;;;;;8.94;100.00;95151.88;4999917;28;20204;-89
2023/12/11 04:49:56;;;;;;;0.70;0.70;;;;;;;8.94;100.00;95160.38;5006091;28;20237;-88
2023/12/11 04:52:23;;;;;;;0.70;0.70;;;;;;;8.93;100.00;95158.78;5006322;28;20195;-88
2023/12/11 04:54:49;;;;;;;3.00;0.80;;;;;;;8.96;100.00;95150.72;5007696;28;20219;-89
2023/12/11 04:59:58;;;;;;;2.10;0.97;;;;;;;9.10;100.00;95123.44;5006613;28;20207;-89
2023/12/11 05:02:24;;;;;;;1.67;1.00;;;;;;;9.12;100.00;95103.53;5009273;28;20233;-89
2023/12/11 05:04:51;;;;;;;0.83;0.83;;;;;;;9.11;100.00;95089.09;5007838;28;20242;-89
2023/12/11 05:07:18;;;;;;;1.33;0.80;;;;;;;9.13;100.00;95073.50;5007213;28;20206;-88
2023/12/11 05:09:54;;;;;;;1.77;1.00;;;;;;;9.06;100.00;95059.78;5007353;28;20691;-89
2023/12/11 05:12:21;;;;;;;1.97;1.03;;;;;;;9.07;100.00;95067.31;5010250;28;20209;-89
2023/12/11 05:14:48;;;;;;;2.07;1.30;;;;;;;9.04;100.00;95049.72;5011846;28;20231;-89
2023/12/11 05:17:33;;;;;;;0.87;0.87;;;;;;;9.06;100.00;95040.03;5011779;28;20209;-89
2023/12/11 05:19:59;;;;;;;1.97;1.10;;;;;;;8.96;100.00;95021.56;5011685;28;20187;-89
2023/12/11 05:22:26;;;;;;;1.10;1.00;;;;;;;8.94;100.00;95031.22;5011498;28;20195;-88
2023/12/11 05:24:52;;;;;;;1.90;1.10;;;;;;;8.95;100.00;95035.38;5009393;28;20225;-88
2023/12/11 05:27:18;;;;;;;2.00;1.27;;;;;;;8.94;100.00;95049.97;5015709;28;20212;-88
2023/12/11 05:30:01;;;;;;;1.20;1.10;;;;;;;8.94;100.00;95070.53;5026300;28;20688;-87
2023/12/11 05:32:28;;;;;;;1.03;1.00;;;;;;;8.96;100.00;95086.53;5010156;28;20198;-89
2023/12/11 05:34:54;;;;;;;1.53;1.10;;;;;;;8.98;100.00;95070.97;5011383;28;20254;-89
2023/12/11 05:37:21;;;;;;;3.20;1.40;;;;;;;8.91;100.00;95076.00;5010888;28;20732;-89
2023/12/11 05:39:47;;;;;;;1.33;1.10;;;;;;;8.88;100.00;95075.56;5009898;28;20255;-88
2023/12/11 05:42:19;;;;;;;2.77;1.30;;;;;;;8.88;100.00;95078.94;5012859;28;20205;-88
2023/12/11 05:44:45;;;;;;;0.83;0.83;;;;;;;8.80;100.00;95073.09;5011336;28;20223;-88
2023/12/11 05:47:13;;;;;;;1.27;0.87;;;;;;;8.84;100.00;95084.63;5010872;28;20217;-88
2023/12/11 05:49:40;;;;;;;1.83;1.13;;;;;;;8.76;100.00;95092.41;5010250;28;20195;-89
2023/12/11 05:52:06;;;;;;;1.13;0.90;;;;;;;8.77;100.00;95094.78;5002617;28;20211;-89
2023/12/11 05:54:46;;;;;;;1.77;1.10;;;;;;;8.73;100.00;95075.56;5006040;28;20569;-89
2023/12/11 05:57:13;;;;;;;1.10;1.00;;;;;;;8.79;100.00;95059.47;5002405;28;20202;-89
2023/12/11 05:59:39;;;;;;;1.27;0.87;;;;;;;8.83;100.00;95054.78;5011174;28;20203;-88
2023/12/11 06:02:08;;;;;;;1.30;1.00;;;;;;;8.83;100.00;95042.75;5011950;28;20206;-88
2023/12/11 06:04:47;;;;;;;1.60;1.07;;;;;;;8.80;100.00;95050.81;5009711;28;20310;-88
2023/12/11 06:07:13;;;;;;;1.47;0.90;;;;;;;8.81;100.00;95067.00;5010429;28;20190;-89
2023/12/11 06:09:40;;;;;;;1.40;0.93;;;;;;;8.83;100.00;95067.63;4991673;28;20203;-90
2023/12/11 06:12:08;;;;;;;0.70;0.70;;;;;;;8.84;100.00;95066.66;4992078;28;20692;-89
2023/12/11 06:14:35;;;;;;;2.17;0.97;;;;;;;8.91;100.00;95072.66;5037160;23;20300;-89
2023/12/11 06:17:11;;;;;;;1.13;0.90;;;;;;;8.89;100.00;95074.59;5030566;28;21299;-89
2023/12/11 06:19:41;;;;;;;1.00;0.80;;;;;;;8.89;100.00;95075.38;5030066;28;20632;-90
2023/12/11 06:22:08;;;;;;;1.30;0.83;;;;;;;8.88;100.00;95081.50;5029776;28;20202;-89
2023/12/11 06:24:34;;;;;;;1.73;0.90;;;;;;;8.88;100.00;95076.34;5028805;28;20230;-89
2023/12/11 06:27:16;;;;;;;1.53;0.70;;;;;;;8.91;100.00;95059.81;5030083;28;20202;-89
2023/12/11 06:29:42;;;;;;;1.30;0.90;;;;;;;8.91;100.00;95067.50;5025530;28;20233;-89
2023/12/11 06:32:12;;;;;;;3.90;1.30;;;;;;;8.95;100.00;95072.13;5029891;28;20210;-89
2023/12/11 06:34:40;;;;;;;0.93;0.83;;;;;;;8.95;100.00;95056.72;5030697;28;20225;-88
2023/12/11 06:37:15;;;;;;;0.80;0.80;;;;;;;8.95;100.00;95038.75;5030563;28;20198;-89
2023/12/11 06:39:41;;;;;;;2.10;0.90;;;;;;;9.01;100.00;95052.63;5031240;28;20228;-87
2023/12/11 06:42:08;;;;;;;1.50;0.93;;;;;;;9.00;100.00;95059.53;5029866;28;20209;-88
2023/12/11 06:44:36;;;;;;;1.87;1.40;;;;;;;9.00;100.00;95062.13;5027539;28;20224;-87
2023/12/11 06:47:03;;;;;;;0.80;0.80;;;;;;;9.03;100.00;95078.94;5029634;28;20194;-89
2023/12/11 06:49:42;;;;;;;1.20;0.83;;;;;;;9.08;100.00;95083.50;5021983;28;20201;-89
2023/12/11 06:52:08;;;;;;;0.80;0.80;;;;;;;9.03;100.00;95080.72;5029636;28;20668;-89
2023/12/11 06:54:35;;;;;;;0.77;0.77;;;;;;;9.03;100.00;95091.78;5029019;28;20218;-89
2023/12/11 06:57:19;;;;;;;0.87;0.80;;;;;;;9.09;100.00;95100.50;5030778;28;20616;-89
2023/12/11 06:59:45;;;;;;;0.97;0.70;;;;;;;9.14;100.00;95088.72;5030289;28;20205;-89
2023/12/11 07:02:12;;;;;;;1.20;0.80;;;;;;;9.11;100.00;95073.69;5025129;28;20220;-88
2023/12/11 07:04:42;;;;;;;0.73;0.73;;;;;;;9.13;100.00;95076.06;5029282;28;20871;-89
2023/12/11 07:07:23;;;;;;;1.63;0.80;;;;;;;9.12;100.00;95065.00;5030177;28;20205;-88
2023/12/11 07:09:50;;;;;;;1.13;0.70;;;;;;;9.21;100.00;95060.56;5009797;28;20213;-89
2023/12/11 07:12:16;;;;;;;2.30;2.00;;;;;;;9.28;100.00;95043.44;5009855;28;20699;-89
2023/12/11 07:14:44;;;;;;;1.63;1.40;;;;;;;9.28;100.00;95031.41;5009542;28;20234;-89
2023/12/11 07:17:10;;;;;;;1.00;0.90;;;;;;;9.27;100.00;95041.84;5014629;28;20689;-89
2023/12/11 07:19:47;;;;;;;1.57;0.90;;;;;;;9.30;100.00;95044.84;5029184;28;20199;-89
2023/12/11 07:22:13;;;;;;;1.93;1.50;;;;;;;9.31;100.00;95036.19;5009733;28;20203;-89
2023/12/11 07:24:40;;;;;;;1.80;1.20;;;;;;;9.29;100.00;95050.97;5014873;28;20221;-88
2023/12/11 07:27:06;;;;;;;2.10;0.90;;;;;;;9.27;100.00;95065.75;5049149;28;20658;-88
2023/12/11 07:29:33;;;;;;;1.50;1.40;;;;;;;9.33;100.00;95061.69;5048892;28;20200;-89
2023/12/11 07:32:11;;;;;;;2.10;1.10;;;;;;;9.32;100.00;95073.72;5038335;28;20683;-88
2023/12/11 07:34:38;;;;;;;1.70;1.10;;;;;;;9.38;100.00;95074.00;5027059;28;20218;-89
2023/12/11 07:37:42;;;;;;;1.37;1.10;;;;;;;9.38;100.00;95054.22;5029087;28;20810;-88
2023/12/11 07:40:10;;;;;;;0.87;0.80;;;;;;;9.47;100.00;95047.19;5029245;28;20214;-88
2023/12/11 07:42:52;;;;;;;0.97;0.90;;;;;;;9.43;100.00;95031.34;5029036;28;20202;-87
2023/12/11 07:45:19;;;;;;;1.77;0.90;;;;;;;9.44;100.00;95047.56;5015483;28;20565;-89
2023/12/11 07:47:45;;;;;;;1.47;0.80;;;;;;;9.41;100.00;95061.59;5010184;28;20707;-89
2023/12/11 07:50:27;;;;;;;1.20;0.70;;;;;;;9.40;100.00;95065.13;5018306;28;20306;-89
2023/12/11 07:53:05;;;;;;;1.87;0.93;;;;;;;9.49;100.00;95069.16;5028839;28;20206;-89
2023/12/11 07:55:52;;;;;;;0.70;0.70;;;;;;;9.58;100.00;95069.84;5029097;28;20587;-88
2023/12/11 07:58:18;;;;;;;2.00;0.70;;;;;;;9.63;100.00;95086.28;5029442;28;20206;-89
2023/12/11 08:01:08;;;;;;;0.97;0.70;;;;;;;9.69;100.00;95075.28;5032452;28;20252;-89
2023/12/11 08:03:35;;;;;;;1.13;0.70;;;;;;;9.73;100.00;95068.00;5022631;28;20711;-89
2023/12/11 08:06:01;;;;;;;2.33;0.80;;;;;;;9.78;100.00;95047.69;5029920;28;20727;-87
2023/12/11 08:08:29;;;;;;;0.80;0.80;;;;;;;9.86;100.00;95041.63;5028514;28;20297;-88
2023/12/11 08:11:15;;;;;;;0.87;0.80;;;;;;;9.91;100.00;95011.81;5028922;28;20206;-88
2023/12/11 08:13:50;;;;;;;0.90;0.90;;;;;;;9.91;100.00;95019.53;5029130;28;20205;-89
2023/12/11 08:23:38;;;;;;;1.20;0.83;;;;;;;9.97;100.00;94969.94;4997275;28;20226;-88
2023/12/11 08:26:05;;;;;;;2.13;0.90;;;;;;;9.93;100.00;94963.56;5017280;28;20222;-88
2023/12/11 08:34:48;;;;;;;1.60;1.10;;;;;;;10.03;100.00;94958.06;4986182;28;20218;-89
2023/12/11 08:37:25;;;;;;;;;;;;;;;;;;;;;
2023/12/11 08:40:09;;;;;;;0.70;0.70;;;;;;;10.05;100.00;94946.63;5023152;28;20206;-89
2023/12/11 08:42:39;;;;;;;0.70;0.70;;;;;;;10.01;100.00;94947.19;5013252;28;20202;-88
2023/12/11 08:45:07;;;;;;;1.03;0.93;;;;;;;10.00;100.00;94958.47;5008702;28;20296;-88
2023/12/11 08:47:43;;;;;;;;;;;;;;;;;;;;;
2023/12/11 08:50:11;;;;;;;0.80;0.80;;;;;;;10.03;100.00;94956.31;5024404;28;20202;-89
2023/12/11 08:52:42;;;;;;;1.13;0.90;;;;;;;10.04;100.00;94957.88;5032035;28;20202;-89
2023/12/11 08:55:10;;;;;;;0.90;0.80;;;;;;;10.10;100.00;94950.41;5029655;28;20609;-88
2023/12/11 08:57:50;;;;;;;0.90;0.90;;;;;;;10.09;100.00;94946.25;5032270;28;20206;-88
2023/12/11 09:00:17;;;;;;;0.70;0.70;;;;;;;10.04;100.00;94946.81;5032323;28;20256;-88
2023/12/11 09:02:44;;;;;;;1.10;1.00;;;;;;;10.08;100.00;94957.50;5032543;28;20289;-90
2023/12/11 09:05:43;;;;;;;4.40;1.37;;;;;;;10.12;100.00;94962.09;5065863;23;20240;-89
2023/12/11 09:08:10;;;;;;;4.07;1.40;;;;;;;10.12;100.00;94958.72;4921258;28;20205;-88
2023/12/11 09:14:01;;;;;;;0.70;0.70;;;;;;;10.12;100.00;94963.88;4998157;28;20203;-89
2023/12/11 09:16:38;;;;;;;3.10;0.87;;;;;;;10.12;100.00;94972.41;5028449;23;20226;-89
2023/12/11 09:19:05;;;;;;;1.70;0.63;;;;;;;10.13;100.00;94981.69;5031517;28;20198;-89
2023/12/11 09:21:31;;;;;;;3.83;0.80;;;;;;;10.18;100.00;94981.94;5031513;28;20205;-89
2023/12/11 09:23:58;;;;;;;1.07;0.80;;;;;;;10.22;100.00;94972.88;5030936;28;20233;-88
2023/12/11 09:26:27;;;;;;;0.80;0.80;;;;;;;10.25;100.00;94976.84;5029593;28;20666;-89
2023/12/11 09:29:08;;;;;;;0.80;0.80;;;;;;;10.24;100.00;94955.47;5031713;28;20237;-89
2023/12/11 09:31:35;;;;;;;0.60;0.60;;;;;;;10.25;100.00;94933.91;5031471;28;20913;-89
2023/12/11 09:34:01;;;;;;;0.70;0.70;;;;;;;10.33;100.00;94966.41;5031903;28;20941;-89
2023/12/11 09:36:28;;;;;;;0.60;0.60;;;;;;;10.33;100.00;94954.34;5025893;28;20218;-88
2023/12/11 09:38:55;;;;;;;0.67;0.60;;;;;;;10.31;100.00;94919.50;5028711;28;20198;-89
2023/12/11 09:41:49;;;;;;;0.77;0.77;;;;;;;10.33;100.00;94902.88;5031301;28;20210;-88
2023/12/11 09:44:32;;;;;;;0.80;0.80;;;;;;;10.32;100.00;94885.84;5009849;28;20313;-89
2023/12/11 09:47:24;;;;;;;2.93;2.63;;;;;;;10.32;100.00;94872.19;5030983;28;20687;-88
2023/12/11 09:49:51;;;;;;;3.23;2.93;;;;;;;10.40;100.00;94856.56;5031155;28;20198;-88
2023/12/11 09:52:18;;;;;;;8.13;7.33;;;;;;;10.44;100.00;94851.84;5031047;28;20205;-89
2023/12/11 09:54:45;;;;;;;4.93;4.03;;;;;;;10.50;100.00;94846.72;5030905;28;20264;-89
2023/12/11 09:57:27;;;;;;;1.00;0.90;;;;;;;10.47;100.00;94828.28;5031655;28;20465;-88
2023/12/11 10:00:03;;;;;;;0.73;0.73;;;;;;;10.48;100.00;94799.00;5030393;28;20301;-89
2023/12/11 10:02:29;;;;;;;4.10;1.03;;;;;;;10.56;100.00;94804.78;5031417;28;20198;-88
2023/12/11 10:05:09;;;;;;;0.50;0.50;;;;;;;10.58;100.00;94802.00;5031390;28;20257;-89
2023/12/11 10:07:36;;;;;;;1.20;0.77;;;;;;;10.61;100.00;94822.19;5030246;28;20210;-88
2023/12/11 10:10:33;;;;;;;0.97;0.70;;;;;;;10.58;100.00;94849.09;5030701;28;20202;-89
2023/12/11 10:13:01;;;;;;;1.20;0.70;;;;;;;10.59;100.00;94861.00;4988925;28;20207;-88
2023/12/11 10:15:29;;;;;;;1.30;0.80;;;;;;;10.63;100.00;94877.63;5019151;28;20214;-89
2023/12/11 10:18:09;;;;;;;1.53;0.80;;;;;;;10.61;100.00;94884.75;5024375;28;20557;-90
2023/12/11 10:20:38;;;;;;;0.70;0.70;;;;;;;10.62;100.00;94870.91;5010727;28;20305;-89
2023/12/11 10:23:22;;;;;;;;;;;;;;;;;;;;;
2023/12/11 10:25:51;;;;;;;0.67;0.67;;;;;;;10.59;100.00;94868.72;5029853;28;20272;-89
2023/12/11 10:28:32;;;;;;;1.60;0.77;;;;;;;10.64;100.00;94868.13;5029871;28;20197;-89
2023/12/11 10:31:05;;;;;;;0.67;0.60;;;;;;;10.62;100.00;94868.31;5027205;28;20209;-89
2023/12/11 10:33:32;;;;;;;0.47;0.47;;;;;;;10.58;100.00;94882.56;5023762;28;20194;-89
2023/12/11 10:40:09;;;;;;;1.83;1.73;;;;;;;10.61;100.00;94889.09;5008699;28;20206;-88
2023/12/11 10:43:51;;;;;;;0.60;0.60;;;;;;;10.57;100.00;94882.78;4891428;29;20677;-89
2023/12/11 10:46:57;;;;;;;1.80;0.90;;;;;;;10.56;100.00;94904.34;4800690;29;20719;-89
2023/12/11 10:49:25;;;;;;;1.80;0.90;;;;;;;10.62;100.00;94878.63;4950689;28;20208;-89
2023/12/11 10:51:52;;;;;;;0.70;0.70;;;;;;;10.58;100.00;94869.69;4968737;28;20585;-90
2023/12/11 10:54:21;;;;;;;0.70;0.70;;;;;;;10.60;100.00;94857.44;4984951;28;20198;-89
2023/12/11 10:56:48;;;;;;;1.00;0.70;;;;;;;10.61;100.00;94835.06;5010255;28;20207;-88
2023/12/11 10:59:16;;;;;;;1.40;0.63;;;;;;;10.58;100.00;94843.94;5009928;28;20699;-89
2023/12/11 11:01:46;;;;;;;1.00;0.90;;;;;;;10.61;100.00;94840.19;5009834;28;20213;-89
2023/12/11 11:04:14;;;;;;;2.93;1.00;;;;;;;10.63;100.00;94845.94;5004290;28;20696;-88
2023/12/11 11:06:49;;;;;;;0.90;0.90;;;;;;;10.62;100.00;94849.50;5010056;28;20203;-88
2023/12/11 11:09:35;;;;;;;0.87;0.80;;;;;;;10.63;100.00;94859.63;5008842;28;20314;-89
2023/12/11 11:12:14;;;;;;;1.43;1.07;;;;;;;10.59;100.00;94845.53;5007849;28;20202;-88
2023/12/11 11:14:47;;;;;;;1.03;0.77;;;;;;;10.61;100.00;94847.94;5009295;28;20218;-87
2023/12/11 11:17:14;;;;;;;0.77;0.70;;;;;;;10.54;100.00;94839.41;5020168;28;20259;-88
2023/12/11 11:20:27;;;;;;;1.10;0.80;;;;;;;10.55;100.00;94844.38;5016315;28;20203;-88
2023/12/11 11:23:31;;;;;;;0.67;0.57;;;;;;;10.51;100.00;94834.66;5018918;28;20198;-88
2023/12/11 11:25:59;;;;;;;0.60;0.60;;;;;;;10.43;100.00;94825.31;5029279;28;20699;-88
2023/12/11 11:28:50;;;;;;;0.50;0.50;;;;;;;10.49;100.00;94809.09;5022367;28;20210;-88
2023/12/11 11:31:17;;;;;;;0.50;0.50;;;;;;;10.42;100.00;94798.00;5008650;28;20210;-89
2023/12/11 11:33:46;;;;;;;0.60;0.60;;;;;;;10.42;100.00;94774.03;5009504;28;20215;-88
2023/12/11 11:36:15;;;;;;;0.50;0.50;;;;;;;10.39;100.00;94775.25;5005595;28;20238;-89
2023/12/11 11:45:45;;;;;;;0.70;0.70;;;;;;;10.51;100.00;94791.69;4897973;29;20225;-88
2023/12/11 11:48:12;;;;;;;0.97;0.70;;;;;;;10.45;100.00;94783.94;4947699;28;20557;-89
2023/12/11 11:50:55;;;;;;;0.60;0.60;;;;;;;10.36;100.00;94776.44;5023450;28;20226;-88
2023/12/11 11:53:22;;;;;;;0.93;0.50;;;;;;;10.19;100.00;94753.81;4993933;28;20203;-89
2023/12/11 11:55:50;;;;;;;0.60;0.60;;;;;;;10.18;100.00;94768.44;4989642;28;20585;-88
2023/12/11 11:58:17;;;;;;;0.70;0.70;;;;;;;10.25;100.00;94753.81;4989016;28;20199;-88
2023/12/11 12:00:45;;;;;;;0.40;0.40;;;;;;;10.19;100.00;94758.97;4990149;28;20203;-90
2023/12/11 12:03:24;;;;;;;1.80;0.60;;;;;;;10.26;100.00;94757.97;4989164;28;20294;-90
2023/12/11 12:05:54;;;;;;;1.17;0.63;;;;;;;10.21;100.00;94756.97;4989784;28;20632;-89
2023/12/11 12:08:21;;;;;;;0.50;0.50;;;;;;;10.21;100.00;94773.19;4999178;28;20225;-89
2023/12/11 12:10:48;;;;;;;0.50;0.50;;;;;;;10.16;100.00;94759.31;5013816;28;20642;-89
2023/12/11 12:13:27;;;;;;;0.53;0.53;;;;;;;10.25;100.00;94771.81;5009293;28;20229;-89
2023/12/11 12:15:54;;;;;;;1.43;1.27;;;;;;;10.18;100.00;94763.28;5008962;28;20723;-89
2023/12/11 12:18:22;;;;;;;0.70;0.70;;;;;;;10.17;99.84;94779.72;5008935;28;20202;-89
2023/12/11 12:21:07;;;;;;;0.50;0.50;;;;;;;10.02;98.69;94766.97;5010813;28;20212;-89
2023/12/11 12:23:34;;;;;;;0.30;0.30;;;;;;;10.00;98.22;94734.75;5008105;28;20203;-90
2023/12/11 12:26:03;;;;;;;0.50;0.50;;;;;;;9.99;98.15;94715.16;5007241;28;20238;-89
2023/12/11 12:28:30;;;;;;;0.60;0.40;;;;;;;10.00;98.25;94702.13;5032809;28;20263;-89
2023/12/11 12:31:10;;;;;;;0.50;0.50;;;;;;;10.01;97.28;94695.97;5031112;28;20216;-89
2023/12/11 12:33:38;;;;;;;0.43;0.43;;;;;;;10.01;96.11;94684.88;5013161;28;20569;-89
2023/12/11 12:36:10;;;;;;;0.50;0.50;;;;;;;10.00;95.29;94658.41;5012967;28;20258;-89